Accueil
METAR-TAF:

METAR-TAF

Aéroports :

Windham Airport

Willimantic, Connecticut, États-Unis

latitude: 41-44-31N, longitude: 072-11-01W, altitude: 75 m

Observation

Le bulletin a été fait il y a 28 minutes, à 19:52 UTC
Vent 16 kt de ouest/nord-ouest avec des rafales jusqu'à 31 kt
Température 8°C
Humidité 46%
Pression 992 hPa
Visibilité: 16.1 km
Nuages fragmentés à une hauteur de 5500 ft
Nuages fragmentés à une hauteur de 6500 ft
Nuages fragmentés à une hauteur de 8000 ft

METAR: KIJD 101952Z AUTO 30016G31KT 10SM BKN055 BKN065 BKN080 08/M03 A2929 RMK AO2 PK WND 28031/1943 SLP917 T00831033

Heure: 16:20 (20:20 UTC)


TAF: absent

Observations et prévisions météorologiques de plus de 4000 aéroports (messages METAR et TAF).

Les stations disponibles sont représentées par des disques jaunes et rouges sur la carte.

Passer la souris dessus pour voir le nom de la station.

Cliquer dessus pour voir les observations et prévisions météorologiques.

Pour changer de carte: cliquez sur les boutons verts avec une croix noire pour zoomer, sur le bouton vert avec un tiret pour effectuer un zoom arrière, ou sur les flèches vertes pour les cartes adjacentes.


METAR-TAF: